Time;durP1;ratioP1;P1;durP2;ratioP2;P2;SDS_P1;SDS_P2;PMS_P1;PMS_P2;Temp;Humidity;BMP_temperature;BMP_pressure;BME280_temperature;BME280_humidity;BME280_pressure;Samples;Min_cycle;Max_cycle;Signal;HPM_P1;HPM_P2
2023/01/09 00:00:12;;;;;;;7.85;1.98;;;6.70;99.90;;;;;;5158302;27;20039;-59
2023/01/09 00:02:39;;;;;;;10.57;2.50;;;6.80;99.90;;;;;;5159384;27;20039;-58
2023/01/09 00:05:06;;;;;;;6.80;2.10;;;6.70;99.90;;;;;;5160635;27;20441;-58
2023/01/09 00:07:32;;;;;;;6.97;2.17;;;6.70;99.90;;;;;;5144154;27;20050;-59
2023/01/09 00:09:58;;;;;;;13.02;2.45;;;6.70;99.90;;;;;;5126232;27;20409;-58
2023/01/09 00:12:23;;;;;;;10.48;2.47;;;7.10;99.90;;;;;;5162331;27;20074;-60
2023/01/09 00:14:49;;;;;;;10.60;2.45;;;6.70;99.90;;;;;;5162698;27;20035;-65
2023/01/09 00:17:15;;;;;;;10.48;2.92;;;6.60;99.90;;;;;;5161916;27;20031;-66
2023/01/09 00:19:40;;;;;;;7.72;2.42;;;7.00;99.90;;;;;;5143963;27;20106;-65
2023/01/09 00:22:08;;;;;;;8.88;2.15;;;6.60;99.90;;;;;;5162115;27;20054;-65
2023/01/09 00:24:35;;;;;;;6.50;2.05;;;6.50;99.90;;;;;;5162891;27;20121;-63
2023/01/09 00:27:01;;;;;;;7.30;1.75;;;6.50;99.90;;;;;;5162163;27;20039;-63
2023/01/09 00:29:27;;;;;;;7.85;2.08;;;6.40;99.90;;;;;;5162579;27;20258;-61
2023/01/09 00:31:53;;;;;;;5.55;2.15;;;6.50;99.90;;;;;;5161835;27;20062;-61
2023/01/09 00:34:18;;;;;;;5.00;1.60;;;6.40;99.90;;;;;;5162013;27;20039;-61
2023/01/09 00:36:44;;;;;;;6.22;1.65;;;6.30;99.90;;;;;;5143632;27;20402;-61
2023/01/09 00:39:10;;;;;;;5.68;1.50;;;6.50;99.90;;;;;;5161684;27;20065;-60
2023/01/09 00:41:45;;;;;;;5.25;1.40;;;6.30;99.90;;;;;;5162489;27;20049;-60
2023/01/09 00:44:19;;;;;;;5.45;1.70;;;6.50;99.90;;;;;;5161982;27;20062;-58
2023/01/09 00:46:50;;;;;;;4.38;1.60;;;6.30;99.90;;;;;;5162145;27;20099;-59
2023/01/09 00:49:17;;;;;;;3.95;1.40;;;6.50;99.90;;;;;;5162359;27;20386;-60
2023/01/09 00:51:42;;;;;;;5.18;1.20;;;6.30;99.90;;;;;;5161432;27;20405;-59
2023/01/09 00:54:10;;;;;;;5.63;1.25;;;6.40;99.90;;;;;;5140113;27;20067;-59
2023/01/09 00:56:36;;;;;;;5.00;1.30;;;6.30;99.90;;;;;;5140555;27;20084;-59
2023/01/09 00:59:03;;;;;;;3.63;1.05;;;6.30;99.90;;;;;;5141189;27;20495;-59
2023/01/09 01:01:29;;;;;;;3.03;1.13;;;6.30;99.90;;;;;;5140752;27;20043;-59
2023/01/09 01:03:55;;;;;;;3.15;1.08;;;6.40;99.90;;;;;;5140745;27;20050;-59
2023/01/09 01:09:05;;;;;;;3.72;0.98;;;6.30;99.90;;;;;;5140364;27;20042;-59
2023/01/09 01:11:32;;;;;;;4.22;0.93;;;6.40;99.90;;;;;;5140957;27;20047;-59
2023/01/09 01:13:58;;;;;;;2.55;0.95;;;6.30;99.90;;;;;;5139995;27;20159;-58
2023/01/09 01:16:24;;;;;;;3.28;0.90;;;6.30;99.90;;;;;;5121475;27;20050;-59
2023/01/09 01:18:49;;;;;;;3.25;1.08;;;6.30;99.90;;;;;;5140669;27;20039;-59
2023/01/09 01:21:16;;;;;;;6.85;1.98;;;6.30;99.90;;;;;;5140204;27;20077;-59
2023/01/09 01:23:42;;;;;;;4.35;1.30;;;6.30;99.90;;;;;;5141075;27;20126;-60
2023/01/09 01:26:15;;;;;;;2.70;0.95;;;6.20;99.90;;;;;;5139911;27;20039;-59
2023/01/09 01:28:42;;;;;;;3.15;1.13;;;6.20;99.90;;;;;;5140641;27;20039;-59
2023/01/09 01:31:08;;;;;;;4.57;1.30;;;6.20;99.90;;;;;;5139463;27;20498;-59
2023/01/09 01:33:35;;;;;;;3.25;1.10;;;6.30;99.90;;;;;;5140749;27;20116;-58
2023/01/09 01:36:01;;;;;;;4.43;1.13;;;6.30;99.90;;;;;;5140174;27;20051;-58
2023/01/09 01:38:28;;;;;;;4.43;1.38;;;6.20;99.90;;;;;;5140023;27;20091;-58
2023/01/09 01:40:53;;;;;;;3.17;1.20;;;6.20;99.90;;;;;;5140400;27;20054;-58
2023/01/09 01:43:19;;;;;;;5.20;1.60;;;6.20;99.90;;;;;;5120884;27;20043;-59
2023/01/09 01:45:45;;;;;;;5.22;1.60;;;6.20;99.90;;;;;;5121805;27;20405;-59
2023/01/09 01:48:16;;;;;;;5.60;1.80;;;6.30;99.90;;;;;;5139688;27;20044;-58
2023/01/09 01:50:57;;;;;;;5.40;1.83;;;6.20;99.90;;;;;;5140483;27;20050;-59
2023/01/09 01:53:25;;;;;;;5.15;1.95;;;6.30;99.90;;;;;;5140172;27;20478;-58
2023/01/09 01:55:57;;;;;;;7.43;2.67;;;6.30;99.90;;;;;;5157303;27;20043;-59
2023/01/09 01:58:24;;;;;;;6.30;1.85;;;6.10;99.90;;;;;;5160655;27;20053;-58
2023/01/09 02:00:50;;;;;;;6.63;2.22;;;6.30;99.90;;;;;;5141020;27;20066;-59
2023/01/09 02:03:22;;;;;;;5.50;2.30;;;6.20;99.90;;;;;;5161079;27;20445;-58
2023/01/09 02:05:48;;;;;;;9.63;2.67;;;6.10;99.90;;;;;;5160491;27;20042;-59
2023/01/09 02:08:14;;;;;;;5.93;2.10;;;6.10;99.90;;;;;;5160447;27;20284;-59
2023/01/09 02:10:41;;;;;;;8.45;2.50;;;6.30;99.90;;;;;;5160612;27;20039;-58
2023/01/09 02:13:08;;;;;;;9.25;2.63;;;6.30;99.90;;;;;;5159692;27;20038;-59
2023/01/09 02:16:11;;;;;;;8.95;2.83;;;6.10;99.90;;;;;;5160680;27;20083;-59
2023/01/09 02:18:45;;;;;;;6.90;2.47;;;6.10;99.90;;;;;;5160033;27;20039;-58
2023/01/09 02:21:51;;;;;;;6.35;2.50;;;6.10;99.90;;;;;;5160063;27;20414;-59
2023/01/09 02:24:41;;;;;;;9.95;4.05;;;6.10;99.90;;;;;;5160949;27;20080;-59
2023/01/09 02:27:30;;;;;;;9.40;3.13;;;6.00;99.90;;;;;;5141196;27;20043;-58
2023/01/09 02:30:07;;;;;;;8.75;2.75;;;6.00;99.90;;;;;;5159613;27;20091;-59
2023/01/09 02:32:45;;;;;;;6.93;2.50;;;6.00;99.90;;;;;;5160132;27;20055;-58
2023/01/09 02:35:17;;;;;;;10.45;2.78;;;5.90;99.90;;;;;;5159634;27;20486;-58
2023/01/09 02:37:55;;;;;;;7.97;2.70;;;5.80;99.90;;;;;;5160225;27;20043;-58
2023/01/09 02:40:41;;;;;;;9.60;3.08;;;5.80;99.90;;;;;;5160021;27;20039;-58
2023/01/09 02:43:08;;;;;;;12.55;2.90;;;5.90;99.90;;;;;;5159250;27;20104;-59
2023/01/09 02:45:34;;;;;;;6.03;2.75;;;5.90;99.90;;;;;;5160315;27;20050;-59
2023/01/09 02:47:59;;;;;;;8.75;3.20;;;5.60;99.90;;;;;;5159096;27;20146;-59
2023/01/09 02:50:27;;;;;;;8.98;2.97;;;5.80;99.90;;;;;;5160094;27;20057;-59
2023/01/09 02:53:10;;;;;;;9.68;2.92;;;5.70;99.90;;;;;;5159651;27;20035;-59
2023/01/09 02:55:57;;;;;;;8.65;2.53;;;5.60;99.90;;;;;;5143529;27;20046;-59
2023/01/09 02:58:51;;;;;;;8.15;2.88;;;5.80;99.90;;;;;;5139089;27;20051;-56
2023/01/09 03:01:34;;;;;;;7.75;3.47;;;5.60;99.90;;;;;;5116287;27;20050;-56
2023/01/09 03:04:35;;;;;;;7.63;2.50;;;5.70;99.90;;;;;;5138904;27;20035;-57
2023/01/09 03:07:28;;;;;;;8.80;3.03;;;5.50;99.90;;;;;;5084123;27;20043;-57
2023/01/09 03:10:02;;;;;;;10.30;3.00;;;5.60;99.90;;;;;;5138684;27;20456;-58
2023/01/09 03:12:31;;;;;;;9.93;3.25;;;5.60;99.90;;;;;;5138363;27;20023;-58
2023/01/09 03:15:01;;;;;;;7.25;2.55;;;5.50;99.90;;;;;;5139217;27;20035;-58
2023/01/09 03:17:39;;;;;;;10.20;3.00;;;5.70;99.90;;;;;;5137926;27;20039;-57
2023/01/09 03:20:09;;;;;;;11.00;3.55;;;5.40;99.90;;;;;;5139041;28;20139;-57
2023/01/09 03:22:34;;;;;;;8.40;3.10;;;5.50;99.90;;;;;;5119819;28;20054;-58
2023/01/09 03:25:00;;;;;;;7.40;2.80;;;5.50;99.90;;;;;;5120435;28;20043;-58
2023/01/09 03:27:26;;;;;;;12.57;3.25;;;5.50;99.90;;;;;;5138642;28;20043;-58
2023/01/09 03:29:52;;;;;;;8.07;4.00;;;5.30;99.90;;;;;;5138073;28;20050;-57
2023/01/09 03:32:18;;;;;;;12.00;2.65;;;5.30;99.90;;;;;;5138897;28;20097;-58
2023/01/09 03:34:44;;;;;;;12.07;2.92;;;5.30;99.90;;;;;;5137953;28;20067;-57
2023/01/09 03:37:09;;;;;;;9.73;3.22;;;5.30;99.90;;;;;;5120421;28;20122;-58
2023/01/09 03:39:35;;;;;;;9.00;2.83;;;5.30;99.90;;;;;;5139340;27;20043;-57
2023/01/09 03:42:01;;;;;;;10.27;3.08;;;5.20;99.90;;;;;;5142642;27;20064;-58
2023/01/09 03:44:26;;;;;;;9.85;2.95;;;5.10;99.90;;;;;;5142595;27;20035;-58
2023/01/09 03:46:52;;;;;;;10.77;2.92;;;5.20;99.90;;;;;;5142176;27;20047;-59
2023/01/09 03:49:18;;;;;;;11.25;3.10;;;5.10;99.90;;;;;;5143008;27;20043;-58
2023/01/09 03:51:43;;;;;;;9.57;3.22;;;5.30;99.90;;;;;;5141909;27;20039;-58
2023/01/09 03:54:09;;;;;;;9.23;3.10;;;5.30;99.90;;;;;;5145983;27;20039;-58
2023/01/09 03:56:35;;;;;;;9.43;3.20;;;5.10;99.90;;;;;;5162869;27;20202;-58
2023/01/09 03:59:00;;;;;;;11.13;3.65;;;5.20;99.90;;;;;;5144293;27;20043;-58
2023/01/09 04:01:26;;;;;;;8.00;3.92;;;5.30;99.90;;;;;;5162901;27;20038;-58
2023/01/09 04:03:52;;;;;;;8.60;3.20;;;5.00;99.90;;;;;;5163103;27;20042;-58
2023/01/09 04:06:17;;;;;;;10.20;3.63;;;5.10;99.90;;;;;;5144631;27;20046;-58
2023/01/09 04:08:45;;;;;;;11.75;3.85;;;5.20;99.90;;;;;;5162445;27;20077;-58
2023/01/09 04:11:11;;;;;;;8.32;3.28;;;5.30;99.90;;;;;;5163197;27;20091;-58
2023/01/09 04:13:36;;;;;;;10.75;3.58;;;5.00;99.90;;;;;;5162211;27;20042;-58
2023/01/09 04:16:02;;;;;;;8.82;3.22;;;5.10;99.90;;;;;;5163105;27;20110;-58
2023/01/09 04:18:28;;;;;;;10.23;3.25;;;4.90;99.90;;;;;;5162206;27;20098;-58
2023/01/09 04:20:53;;;;;;;11.82;3.88;;;5.20;99.90;;;;;;5162577;27;20491;-57
2023/01/09 04:23:19;;;;;;;11.68;3.42;;;5.10;99.90;;;;;;5162810;27;20035;-58
2023/01/09 04:25:46;;;;;;;13.23;3.97;;;4.90;99.90;;;;;;5162230;27;20087;-58
2023/01/09 04:28:12;;;;;;;9.32;4.03;;;5.10;99.90;;;;;;5144151;27;20530;-58
2023/01/09 04:30:37;;;;;;;10.68;3.83;;;4.90;99.90;;;;;;5161625;27;20031;-59
2023/01/09 04:33:03;;;;;;;8.68;3.55;;;4.90;99.90;;;;;;5162954;27;20046;-58
2023/01/09 04:35:29;;;;;;;10.60;3.63;;;4.90;99.90;;;;;;5161596;27;20049;-58
2023/01/09 04:37:54;;;;;;;11.60;4.10;;;5.00;99.90;;;;;;5143957;27;20084;-58
2023/01/09 04:40:20;;;;;;;11.60;4.43;;;4.90;99.90;;;;;;5162375;27;20069;-55
2023/01/09 04:42:46;;;;;;;12.77;4.50;;;4.80;99.90;;;;;;5161710;27;20058;-56
2023/01/09 04:45:14;;;;;;;16.55;4.40;;;4.80;99.90;;;;;;5162503;27;20060;-57
2023/01/09 04:47:40;;;;;;;12.23;4.75;;;5.00;99.90;;;;;;5142919;27;20051;-56
2023/01/09 04:50:06;;;;;;;10.88;4.63;;;5.00;99.90;;;;;;5162227;27;20482;-58
2023/01/09 04:52:32;;;;;;;11.18;4.55;;;4.80;99.90;;;;;;5160680;27;20046;-59
2023/01/09 04:54:57;;;;;;;12.88;4.00;;;4.70;99.90;;;;;;5132785;27;20099;-58
2023/01/09 04:57:23;;;;;;;11.48;4.45;;;4.90;99.90;;;;;;5141280;27;20047;-57
2023/01/09 04:59:49;;;;;;;11.80;4.10;;;4.70;99.90;;;;;;5140263;27;20036;-58
2023/01/09 05:02:15;;;;;;;9.40;4.35;;;4.70;99.90;;;;;;5141546;27;20035;-58
2023/01/09 05:04:40;;;;;;;12.93;5.07;;;4.70;99.90;;;;;;5140700;27;20066;-58
2023/01/09 05:07:06;;;;;;;14.85;5.30;;;4.50;99.90;;;;;;5141416;27;20039;-58
2023/01/09 05:09:31;;;;;;;10.82;5.13;;;4.70;99.90;;;;;;5105048;27;20047;-58
2023/01/09 05:11:57;;;;;;;11.80;5.05;;;4.70;99.90;;;;;;5141035;27;20051;-58
2023/01/09 05:14:23;;;;;;;14.23;5.55;;;4.70;99.90;;;;;;5140932;27;20047;-58
2023/01/09 05:16:48;;;;;;;10.02;4.82;;;4.60;99.90;;;;;;5140411;27;20039;-58
2023/01/09 05:19:14;;;;;;;14.57;5.82;;;4.60;99.90;;;;;;5141216;27;20051;-58
2023/01/09 05:21:40;;;;;;;11.55;5.15;;;4.60;99.90;;;;;;5140248;27;20077;-58
2023/01/09 05:24:06;;;;;;;12.95;6.03;;;4.70;99.90;;;;;;5141053;27;20063;-58
2023/01/09 05:26:31;;;;;;;13.55;6.07;;;4.50;99.90;;;;;;5140306;27;20039;-58
2023/01/09 05:28:57;;;;;;;16.00;5.88;;;4.70;99.90;;;;;;5122669;27;20391;-58
2023/01/09 05:31:25;;;;;;;12.15;5.97;;;4.40;99.90;;;;;;5121325;27;20054;-57
2023/01/09 05:33:51;;;;;;;12.02;6.68;;;4.60;99.90;;;;;;5104871;27;20123;-58
2023/01/09 05:36:17;;;;;;;15.52;7.45;;;4.50;99.90;;;;;;5140722;27;20057;-58
2023/01/09 05:38:42;;;;;;;15.65;7.68;;;4.50;99.90;;;;;;5140057;27;20039;-58
2023/01/09 05:41:08;;;;;;;19.67;9.13;;;4.90;99.90;;;;;;5122048;27;20047;-59
2023/01/09 05:43:34;;;;;;;15.93;8.20;;;4.80;99.90;;;;;;5150998;27;20034;-58
2023/01/09 05:46:00;;;;;;;16.05;9.45;;;5.00;99.90;;;;;;5161445;27;20039;-58
2023/01/09 05:48:25;;;;;;;17.77;9.13;;;4.90;99.90;;;;;;5142286;27;20055;-58
2023/01/09 05:50:51;;;;;;;18.27;9.23;;;4.80;99.90;;;;;;5160704;27;20045;-59
2023/01/09 05:53:17;;;;;;;16.88;9.32;;;4.80;99.90;;;;;;5160709;27;20053;-58
2023/01/09 05:55:43;;;;;;;17.20;10.25;;;5.10;99.90;;;;;;5143112;27;20502;-59
2023/01/09 05:58:08;;;;;;;17.02;10.65;;;5.10;99.90;;;;;;5140314;27;20047;-57
2023/01/09 06:00:34;;;;;;;20.40;10.68;;;5.00;99.90;;;;;;5135126;27;20043;-58
2023/01/09 06:03:00;;;;;;;19.58;10.75;;;5.10;99.90;;;;;;5136266;27;20100;-59
2023/01/09 06:05:25;;;;;;;20.42;11.60;;;5.20;99.90;;;;;;5135299;27;20047;-58
2023/01/09 06:07:51;;;;;;;23.55;12.60;;;5.10;99.90;;;;;;5136150;27;20103;-59
2023/01/09 06:10:17;;;;;;;23.73;13.23;;;5.10;99.90;;;;;;5136142;27;20043;-58
2023/01/09 06:12:47;;;;;;;20.17;12.88;;;5.10;99.90;;;;;;5135060;27;20031;-58
2023/01/09 06:15:14;;;;;;;22.05;13.52;;;5.00;99.90;;;;;;5135648;27;20035;-58
2023/01/09 06:17:40;;;;;;;23.23;13.90;;;5.30;99.90;;;;;;5099678;27;20043;-59
2023/01/09 06:20:06;;;;;;;22.50;13.80;;;5.40;99.90;;;;;;5135843;27;20511;-58
2023/01/09 06:22:32;;;;;;;25.85;15.93;;;5.30;99.90;;;;;;5135340;27;20064;-58
2023/01/09 06:24:58;;;;;;;23.90;15.77;;;5.30;99.90;;;;;;5135718;27;20047;-59
2023/01/09 06:27:24;;;;;;;24.95;15.25;;;5.30;99.90;;;;;;5145925;27;20459;-59
2023/01/09 06:29:49;;;;;;;25.63;15.00;;;5.20;99.90;;;;;;5145029;27;20053;-58
2023/01/09 06:32:18;;;;;;;24.88;15.75;;;5.50;99.90;;;;;;5138490;27;20052;-58
2023/01/09 06:34:44;;;;;;;29.75;16.30;;;5.40;99.90;;;;;;5142416;27;20079;-58
2023/01/09 06:37:10;;;;;;;22.95;15.70;;;5.30;99.90;;;;;;5134846;27;20047;-58
2023/01/09 06:39:35;;;;;;;27.42;16.85;;;5.50;99.90;;;;;;5134426;27;20240;-58
2023/01/09 06:42:01;;;;;;;26.30;16.38;;;5.60;99.90;;;;;;5134660;27;20046;-57
2023/01/09 06:44:27;;;;;;;28.77;17.00;;;5.60;99.90;;;;;;5135085;27;20043;-58
2023/01/09 06:46:52;;;;;;;27.48;15.90;;;5.40;99.90;;;;;;5116492;27;20096;-58
2023/01/09 06:49:22;;;;;;;27.17;16.83;;;5.60;99.90;;;;;;5135232;27;20060;-59
2023/01/09 06:51:49;;;;;;;25.42;16.60;;;5.50;99.90;;;;;;5134432;27;20063;-59
2023/01/09 06:54:16;;;;;;;26.15;16.00;;;5.60;99.90;;;;;;5139605;27;20050;-58
2023/01/09 06:56:42;;;;;;;24.77;15.70;;;5.50;99.90;;;;;;5155081;27;20793;-58
2023/01/09 06:59:08;;;;;;;24.42;15.40;;;5.70;99.90;;;;;;5155755;27;20042;-58
2023/01/09 07:01:33;;;;;;;25.50;14.50;;;5.50;99.90;;;;;;5155359;27;20051;-59
2023/01/09 07:03:59;;;;;;;25.63;14.40;;;5.40;99.90;;;;;;5143709;27;20138;-59
2023/01/09 07:06:25;;;;;;;24.27;14.18;;;5.60;99.90;;;;;;5134820;27;20075;-58
2023/01/09 07:08:50;;;;;;;22.95;14.35;;;5.40;99.90;;;;;;5134384;27;20084;-58
2023/01/09 07:11:16;;;;;;;26.90;14.90;;;5.50;99.90;;;;;;5115889;28;20043;-58
2023/01/09 07:13:42;;;;;;;25.67;14.77;;;5.50;99.90;;;;;;5115546;27;20039;-58
2023/01/09 07:16:07;;;;;;;24.67;14.68;;;5.70;99.90;;;;;;5134774;27;20537;-58
2023/01/09 07:18:33;;;;;;;22.80;14.50;;;5.60;99.90;;;;;;5116075;28;20027;-58
2023/01/09 07:20:58;;;;;;;26.58;14.85;;;5.60;99.90;;;;;;5116139;28;20031;-58
2023/01/09 07:23:24;;;;;;;20.70;12.52;;;5.40;99.90;;;;;;5134829;28;20530;-58
2023/01/09 07:25:51;;;;;;;17.80;12.80;;;5.70;99.90;;;;;;5133937;28;20086;-58
2023/01/09 07:28:16;;;;;;;22.85;12.05;;;5.50;99.90;;;;;;5134956;28;20075;-58
2023/01/09 07:30:42;;;;;;;19.38;11.82;;;5.70;99.90;;;;;;5133810;28;20117;-58
2023/01/09 07:33:08;;;;;;;19.95;12.65;;;5.50;99.90;;;;;;5134759;28;20102;-58
2023/01/09 07:35:34;;;;;;;24.38;13.30;;;5.40;99.90;;;;;;5134066;28;20528;-58
2023/01/09 07:37:59;;;;;;;20.25;12.35;;;5.60;99.90;;;;;;5115910;28;20057;-58
2023/01/09 07:40:25;;;;;;;21.58;12.60;;;5.60;99.90;;;;;;5134414;28;20127;-58
2023/01/09 07:42:54;;;;;;;25.27;13.13;;;5.40;99.90;;;;;;5115226;28;20053;-57
2023/01/09 07:45:20;;;;;;;21.00;11.35;;;5.60;99.90;;;;;;5134707;28;20930;-57
2023/01/09 07:47:46;;;;;;;20.23;11.93;;;5.40;99.90;;;;;;5133554;27;20336;-57
2023/01/09 07:50:12;;;;;;;23.35;10.48;;;5.40;99.90;;;;;;5134674;28;20079;-57
2023/01/09 07:52:37;;;;;;;18.63;10.95;;;5.70;99.90;;;;;;5134008;28;20039;-57
2023/01/09 07:55:03;;;;;;;17.13;10.25;;;5.50;99.90;;;;;;5133394;28;20043;-57
2023/01/09 07:57:29;;;;;;;19.50;11.65;;;5.50;99.90;;;;;;5134470;28;20047;-57
2023/01/09 07:59:55;;;;;;;18.95;10.65;;;5.40;99.90;;;;;;5132960;28;20085;-57
2023/01/09 08:02:21;;;;;;;16.92;10.25;;;5.40;99.90;;;;;;5133920;28;20035;-57
2023/01/09 08:04:46;;;;;;;19.23;10.18;;;5.30;99.90;;;;;;5133750;28;20389;-57
2023/01/09 08:07:12;;;;;;;17.88;11.00;;;5.30;99.90;;;;;;5134098;28;20087;-57
2023/01/09 08:09:38;;;;;;;19.08;10.68;;;5.50;99.90;;;;;;5133897;28;20730;-57
2023/01/09 08:12:04;;;;;;;16.00;9.88;;;5.50;99.90;;;;;;5133613;28;20043;-58
2023/01/09 08:14:30;;;;;;;16.30;9.52;;;5.50;99.90;;;;;;5133743;28;20104;-57
2023/01/09 08:16:55;;;;;;;19.05;10.23;;;5.60;99.90;;;;;;5133838;28;20134;-57
2023/01/09 08:19:21;;;;;;;16.40;9.65;;;5.50;99.90;;;;;;5115744;28;20082;-57
2023/01/09 08:21:47;;;;;;;17.67;9.35;;;5.40;99.90;;;;;;5133354;28;20047;-57
2023/01/09 08:24:12;;;;;;;19.25;10.10;;;5.40;99.90;;;;;;5134054;28;20035;-57
2023/01/09 08:26:38;;;;;;;17.55;9.45;;;5.30;99.90;;;;;;5134581;27;20043;-57
2023/01/09 08:29:05;;;;;;;16.10;8.70;;;5.50;99.90;;;;;;5137922;27;20050;-57
2023/01/09 08:31:31;;;;;;;16.13;8.60;;;5.40;99.90;;;;;;5137430;27;20058;-58
2023/01/09 08:33:56;;;;;;;14.90;8.80;;;5.60;99.90;;;;;;5137307;27;20047;-56
2023/01/09 08:36:22;;;;;;;14.73;8.98;;;5.40;99.90;;;;;;5138008;27;20070;-57
2023/01/09 08:38:48;;;;;;;18.20;7.97;;;5.50;99.90;;;;;;5136791;27;20035;-57
2023/01/09 08:49:26;;;;;;;17.80;8.82;;;5.60;99.90;;;;;;5152730;27;20566;-57
2023/01/09 08:51:52;;;;;;;13.75;7.18;;;5.60;99.90;;;;;;5137578;27;20387;-57
2023/01/09 08:54:18;;;;;;;13.95;8.60;;;5.50;99.90;;;;;;5142470;27;20058;-57
2023/01/09 08:56:43;;;;;;;13.43;7.13;;;5.60;99.90;;;;;;5157755;27;20513;-57
2023/01/09 08:59:10;;;;;;;14.95;7.28;;;5.60;99.90;;;;;;5138967;27;20151;-58
2023/01/09 09:01:35;;;;;;;14.60;7.18;;;5.60;99.90;;;;;;5139237;27;20108;-57
2023/01/09 09:04:01;;;;;;;13.63;7.10;;;5.70;99.90;;;;;;5157844;27;20035;-57
2023/01/09 09:06:27;;;;;;;13.00;6.88;;;5.80;99.90;;;;;;5158329;27;20058;-57
2023/01/09 09:08:53;;;;;;;10.30;6.60;;;5.70;99.90;;;;;;5156951;27;20082;-58
2023/01/09 09:11:18;;;;;;;12.05;6.95;;;5.60;99.90;;;;;;5157551;27;20038;-57
2023/01/09 09:13:44;;;;;;;13.30;7.05;;;5.60;99.90;;;;;;5148706;27;20069;-57
2023/01/09 09:16:10;;;;;;;13.13;6.82;;;5.60;99.90;;;;;;5129258;27;20069;-57
2023/01/09 09:18:35;;;;;;;13.38;6.97;;;5.80;99.90;;;;;;5128172;27;20035;-57
2023/01/09 09:21:01;;;;;;;14.05;6.38;;;5.80;99.90;;;;;;5145666;27;20046;-57
2023/01/09 09:23:26;;;;;;;12.73;6.90;;;5.80;99.90;;;;;;5147879;27;20077;-57
2023/01/09 09:25:52;;;;;;;12.93;6.30;;;5.90;99.90;;;;;;5144377;27;20035;-57
2023/01/09 09:28:18;;;;;;;11.82;5.82;;;5.80;99.90;;;;;;5148660;27;20104;-57
2023/01/09 09:30:43;;;;;;;12.10;6.35;;;5.90;99.90;;;;;;5138181;27;20081;-57
2023/01/09 09:33:09;;;;;;;13.43;6.18;;;5.90;99.90;;;;;;5157490;27;20142;-57
2023/01/09 09:35:36;;;;;;;14.13;6.38;;;5.90;99.90;;;;;;5138212;27;20047;-57
2023/01/09 09:38:03;;;;;;;14.10;6.30;;;5.90;99.90;;;;;;5137777;27;20063;-57
2023/01/09 09:40:35;;;;;;;12.32;6.50;;;6.00;99.90;;;;;;5138785;27;20062;-57
2023/01/09 09:46:11;;;;;;;11.38;5.97;;;6.00;99.90;;;;;;5157148;27;20042;-57
2023/01/09 09:48:48;;;;;;;16.23;6.03;;;5.90;99.90;;;;;;5156442;27;20047;-57
2023/01/09 09:51:24;;;;;;;12.07;5.60;;;6.00;99.90;;;;;;5156818;27;20047;-57
2023/01/09 09:54:04;;;;;;;9.75;5.55;;;6.10;99.90;;;;;;5156107;27;20088;-58
2023/01/09 09:56:36;;;;;;;8.93;5.53;;;6.10;99.90;;;;;;5118567;27;20047;-57
2023/01/09 09:59:16;;;;;;;11.93;5.18;;;6.10;99.90;;;;;;5135857;27;20460;-57
2023/01/09 10:01:54;;;;;;;10.45;5.47;;;6.10;99.90;;;;;;5136349;27;20047;-57
2023/01/09 10:04:22;;;;;;;12.57;5.28;;;6.10;99.90;;;;;;5135603;27;20073;-55
2023/01/09 10:06:53;;;;;;;14.93;5.53;;;6.20;99.90;;;;;;5136100;27;20055;-57
2023/01/09 10:09:37;;;;;;;11.25;5.03;;;6.10;99.90;;;;;;5136765;27;20043;-57
2023/01/09 10:12:11;;;;;;;11.52;5.57;;;6.20;99.90;;;;;;5139195;27;20483;-58
2023/01/09 10:14:38;;;;;;;10.65;5.50;;;6.40;99.90;;;;;;5139782;27;20050;-58
2023/01/09 10:17:16;;;;;;;11.52;5.07;;;6.40;99.90;;;;;;5139479;27;20094;-58
2023/01/09 10:19:54;;;;;;;11.10;4.93;;;6.30;99.90;;;;;;5121504;27;20100;-57
2023/01/09 10:22:59;;;;;;;10.13;4.70;;;6.40;99.90;;;;;;5139585;27;20067;-57
2023/01/09 10:25:41;;;;;;;11.63;4.80;;;6.40;99.90;;;;;;5120701;27;20047;-58
2023/01/09 10:28:25;;;;;;;12.82;5.10;;;6.50;99.90;;;;;;5138475;27;20057;-57
2023/01/09 10:31:06;;;;;;;11.60;5.03;;;6.80;99.90;;;;;;5119893;27;20051;-58
2023/01/09 10:34:00;;;;;;;9.98;5.18;;;6.40;99.90;;;;;;5139400;27;20403;-58
2023/01/09 10:36:51;;;;;;;14.32;5.18;;;6.40;99.90;;;;;;5139598;27;20031;-58
2023/01/09 10:39:23;;;;;;;12.55;4.47;;;6.40;99.90;;;;;;5136839;27;20125;-57
2023/01/09 10:42:04;;;;;;;13.10;4.85;;;6.40;99.90;;;;;;5138734;27;20080;-57
2023/01/09 10:44:37;;;;;;;11.93;4.73;;;6.50;99.90;;;;;;5148327;27;20043;-56
2023/01/09 10:47:27;;;;;;;9.50;5.18;;;6.40;99.90;;;;;;5129186;27;20039;-57
2023/01/09 10:49:54;;;;;;;9.80;4.90;;;6.50;99.90;;;;;;5147565;27;20034;-57
2023/01/09 10:52:27;;;;;;;10.02;4.07;;;6.60;99.90;;;;;;5138477;27;20065;-58
2023/01/09 10:55:02;;;;;;;10.18;4.45;;;6.50;99.90;;;;;;5149035;27;20046;-56
2023/01/09 10:57:28;;;;;;;9.23;4.65;;;6.60;99.90;;;;;;5159943;27;20038;-58
2023/01/09 10:59:55;;;;;;;10.23;4.70;;;6.50;99.90;;;;;;5159033;27;20130;-58
2023/01/09 11:02:28;;;;;;;11.15;5.40;;;6.40;99.90;;;;;;5141081;27;20102;-58
2023/01/09 11:04:54;;;;;;;10.93;4.78;;;6.60;99.90;;;;;;5159055;27;20061;-58
2023/01/09 11:07:28;;;;;;;8.73;4.30;;;6.50;99.90;;;;;;5142664;27;20043;-57
2023/01/09 11:10:02;;;;;;;9.73;4.60;;;6.50;99.90;;;;;;5138567;27;20099;-58
2023/01/09 11:12:33;;;;;;;10.55;4.47;;;6.60;99.90;;;;;;5119500;28;20058;-58
2023/01/09 11:15:20;;;;;;;9.00;4.35;;;6.50;99.90;;;;;;5138616;27;20042;-58
2023/01/09 11:17:47;;;;;;;9.52;4.80;;;6.60;99.90;;;;;;5119068;27;20050;-58
2023/01/09 11:20:15;;;;;;;12.45;5.00;;;6.60;99.90;;;;;;5138549;27;20039;-58
2023/01/09 11:22:43;;;;;;;8.65;4.57;;;6.80;99.90;;;;;;5138154;28;20051;-57
2023/01/09 11:25:15;;;;;;;12.70;5.45;;;6.70;99.90;;;;;;5138679;28;20525;-58
2023/01/09 11:27:41;;;;;;;11.75;5.32;;;6.70;99.90;;;;;;5138723;28;20047;-57
2023/01/09 11:30:16;;;;;;;10.02;4.75;;;6.80;99.90;;;;;;5137537;27;20043;-58
2023/01/09 11:32:43;;;;;;;10.02;4.15;;;6.70;99.90;;;;;;5138015;28;20047;-57
2023/01/09 11:35:22;;;;;;;9.35;4.80;;;6.80;99.90;;;;;;5137623;28;20504;-58
2023/01/09 11:37:57;;;;;;;9.52;4.70;;;6.70;99.90;;;;;;5137370;28;20074;-58
2023/01/09 11:40:23;;;;;;;11.90;5.00;;;6.70;99.90;;;;;;5137592;28;20409;-58
2023/01/09 11:43:02;;;;;;;11.85;4.63;;;6.70;99.90;;;;;;5137716;28;20131;-58
2023/01/09 11:45:34;;;;;;;9.77;5.40;;;6.70;99.90;;;;;;5138314;28;20051;-56
2023/01/09 11:48:02;;;;;;;;;;;6.80;99.90;;;;;;5138276;28;20057;-58
2023/01/09 11:50:29;;;;;;;11.43;5.10;;;6.70;99.90;;;;;;5138482;28;19923;-58
2023/01/09 11:53:18;;;;;;;9.98;4.95;;;6.70;99.90;;;;;;5119688;28;20043;-58
2023/01/09 11:55:47;;;;;;;9.55;5.15;;;6.60;99.90;;;;;;5136636;27;20405;-58
2023/01/09 11:58:19;;;;;;;9.45;5.65;;;6.70;99.90;;;;;;5159355;27;20483;-56
2023/01/09 12:01:02;;;;;;;12.48;5.85;;;6.70;99.90;;;;;;5159883;27;20046;-58
2023/01/09 12:03:30;;;;;;;;;;;6.70;99.90;;;;;;5163540;27;20065;-58
2023/01/09 12:06:05;;;;;;;;;;;6.60;99.90;;;;;;5163524;27;20445;-58
2023/01/09 12:08:38;;;;;;;;;;;6.60;99.90;;;;;;5163113;27;19926;-58
2023/01/09 12:11:07;;;;;;;;;;;6.90;99.90;;;;;;5163425;27;19935;-58
2023/01/09 12:13:43;;;;;;;;;;;6.70;99.90;;;;;;5162604;27;19965;-58
2023/01/09 12:16:12;;;;;;;;;;;6.70;99.90;;;;;;5163467;27;19926;-58
2023/01/09 12:19:03;;;;;;;;;;;6.70;99.90;;;;;;5163313;27;19919;-57
2023/01/09 12:21:33;;;;;;;;;;;6.80;99.90;;;;;;5162391;27;19948;-58
2023/01/09 12:24:17;;;;;;;;;;;6.90;99.90;;;;;;5163365;27;19923;-58
2023/01/09 12:26:52;;;;;;;;;;;6.80;99.90;;;;;;5143705;27;19923;-58
2023/01/09 12:29:36;;;;;;;;;;;6.90;99.90;;;;;;5162749;27;19919;-58
2023/01/09 12:32:22;;;;;;;;;;;6.70;99.90;;;;;;5162971;27;19919;-58
2023/01/09 12:34:59;;;;;;;;;;;6.90;99.90;;;;;;5109305;27;19949;-59
2023/01/09 12:37:33;;;;;;;;;;;6.70;99.90;;;;;;5163108;27;19926;-58
2023/01/09 12:40:09;;;;;;;;;;;6.80;99.90;;;;;;5143929;27;19919;-58
2023/01/09 12:42:53;;;;;;;;;;;6.80;99.90;;;;;;5161992;27;19925;-58
2023/01/09 12:45:37;;;;;;;;;;;6.70;99.90;;;;;;5162955;27;19919;-58
2023/01/09 12:48:11;;;;;;;;;;;6.70;99.90;;;;;;5162341;27;19963;-58
2023/01/09 12:50:36;;;;;;;;;;;6.70;99.90;;;;;;5162695;27;20029;-58
2023/01/09 12:53:22;;;;;;;;;;;6.80;99.90;;;;;;5162140;27;20314;-57
2023/01/09 12:56:00;;;;;;;;;;;6.70;99.90;;;;;;5143092;27;19920;-58
2023/01/09 12:59:04;;;;;;;;;;;6.70;99.90;;;;;;5141910;27;19919;-58
2023/01/09 13:01:33;;;;;;;;;;;6.80;99.90;;;;;;5037475;28;19924;-58
2023/01/09 13:03:58;;;;;;;;;;;6.70;99.90;;;;;;5037487;28;19925;-58
2023/01/09 13:06:25;;;;;;;;;;;6.70;99.90;;;;;;5087658;27;19919;-58
2023/01/09 13:08:58;;;;;;;;;;;6.90;99.90;;;;;;5141197;27;19965;-58
2023/01/09 13:11:32;;;;;;;;;;;6.90;99.90;;;;;;5141629;27;20060;-56
2023/01/09 13:14:02;;;;;;;;;;;6.80;99.90;;;;;;5128681;27;19924;-57
2023/01/09 13:16:32;;;;;;;;;;;6.90;99.90;;;;;;5129285;27;19949;-57
2023/01/09 13:19:02;;;;;;;;;;;6.90;99.90;;;;;;5129163;27;19964;-58
2023/01/09 13:21:28;;;;;;;;;;;6.90;99.90;;;;;;5128200;27;19972;-58
2023/01/09 13:24:00;;;;;;;;;;;7.00;99.90;;;;;;5129373;27;20433;-58